Time;durP1;ratioP1;P1;durP2;ratioP2;P2;SDS_P1;SDS_P2;PMS_P1;PMS_P2;Temp;Humidity;BMP_temperature;BMP_pressure;BME280_temperature;BME280_humidity;BME280_pressure;Samples;Min_cycle;Max_cycle;Signal;HPM_P1;HPM_P2
2023/03/18 00:00:42;;;;;;;0.00;0.00;;;;;;;9.46;100.00;99113.22;4973438;28;20026;-78
2023/03/18 00:03:11;;;;;;;0.00;0.00;;;;;;;9.52;100.00;99128.44;5001736;28;20069;-78
2023/03/18 00:05:37;;;;;;;0.00;0.00;;;;;;;9.46;100.00;99117.88;4993861;28;20026;-78
2023/03/18 00:08:06;;;;;;;0.00;0.00;;;;;;;9.42;100.00;99120.38;5001996;28;20018;-77
2023/03/18 00:10:33;;;;;;;0.00;0.00;;;;;;;9.46;100.00;99117.88;4961866;28;20053;-76
2023/03/18 00:13:02;;;;;;;0.00;0.00;;;;;;;9.40;100.00;99111.66;4996959;28;20021;-80
2023/03/18 00:15:28;;;;;;;0.00;0.00;;;;;;;9.54;100.00;99131.69;4995437;28;20034;-74
2023/03/18 00:17:53;;;;;;;0.00;0.00;;;;;;;9.51;100.00;99143.19;4995955;28;21441;-78
2023/03/18 00:20:27;;;;;;;0.00;0.00;;;;;;;9.50;100.00;99136.09;5000654;28;20029;-76
2023/03/18 00:22:56;;;;;;;0.00;0.00;;;;;;;9.55;100.00;99136.06;4975330;28;20025;-79
2023/03/18 00:25:23;;;;;;;0.00;0.00;;;;;;;9.56;100.00;99145.88;4994202;28;20033;-76
2023/03/18 00:27:49;;;;;;;0.00;0.00;;;;;;;9.57;100.00;99139.28;5005202;28;20033;-76
2023/03/18 00:30:14;;;;;;;0.00;0.00;;;;;;;9.58;100.00;99142.84;4989698;28;20685;-78
2023/03/18 00:32:40;;;;;;;0.00;0.00;;;;;;;9.48;100.00;99124.66;4975943;28;20034;-77
2023/03/18 00:35:06;;;;;;;0.00;0.00;;;;;;;9.58;100.00;99135.47;4989708;28;20530;-78
2023/03/18 00:37:33;;;;;;;0.00;0.00;;;;;;;9.59;100.00;99139.00;5007812;28;20041;-78
2023/03/18 00:40:05;;;;;;;0.00;0.00;;;;;;;9.56;100.00;99132.22;4970724;28;20037;-78
2023/03/18 00:42:41;;;;;;;0.00;0.00;;;;;;;9.57;100.00;99125.66;4975903;28;20060;-78
2023/03/18 00:45:09;;;;;;;0.00;0.00;;;;;;;9.54;100.00;99126.22;4973954;28;20029;-78
2023/03/18 00:47:37;;;;;;;0.00;0.00;;;;;;;9.54;100.00;99123.50;5017026;28;20033;-78
2023/03/18 00:50:03;;;;;;;0.00;0.00;;;;;;;9.50;100.00;99130.63;4986160;28;20416;-77
2023/03/18 00:52:29;;;;;;;0.00;0.00;;;;;;;9.51;100.00;99129.53;4987993;28;21622;-77
2023/03/18 00:54:55;;;;;;;0.00;0.00;;;;;;;9.56;100.00;99129.50;4960779;28;20029;-78
2023/03/18 00:57:21;;;;;;;0.00;0.00;;;;;;;9.54;100.00;99122.69;4990043;28;20026;-78
2023/03/18 00:59:47;;;;;;;0.00;0.00;;;;;;;9.56;100.00;99124.03;4989974;28;20085;-78
2023/03/18 01:02:12;;;;;;;0.00;0.00;;;;;;;9.56;100.00;99118.59;4988803;28;20117;-78
2023/03/18 01:04:38;;;;;;;0.00;0.00;;;;;;;9.58;100.00;99121.81;4975340;28;20117;-77
2023/03/18 01:07:04;;;;;;;0.00;0.00;;;;;;;9.57;100.00;99125.66;4993402;28;20022;-77
2023/03/18 01:09:31;;;;;;;0.00;0.00;;;;;;;9.59;100.00;99128.09;4966729;28;20125;-75
2023/03/18 01:11:57;;;;;;;0.00;0.00;;;;;;;9.52;100.00;99109.34;4986794;28;20472;-76
2023/03/18 01:14:22;;;;;;;0.00;0.00;;;;;;;9.58;100.00;99113.63;4962035;28;20038;-76
2023/03/18 01:16:48;;;;;;;0.00;0.00;;;;;;;9.61;100.00;99115.78;4969288;28;20473;-76
2023/03/18 01:19:13;;;;;;;0.00;0.00;;;;;;;9.58;100.00;99101.91;4975769;28;20030;-76
2023/03/18 01:21:39;;;;;;;0.00;0.00;;;;;;;9.64;100.00;99103.47;4969569;28;20467;-77
2023/03/18 01:24:05;;;;;;;0.00;0.00;;;;;;;9.66;100.00;99105.91;4973830;28;20049;-77
2023/03/18 01:26:30;;;;;;;0.00;0.00;;;;;;;9.58;100.00;99101.91;4985782;28;20022;-77
2023/03/18 01:28:56;;;;;;;0.00;0.00;;;;;;;9.66;100.00;99114.09;4980361;28;20034;-77
2023/03/18 01:31:23;;;;;;;0.00;0.00;;;;;;;9.64;100.00;99119.00;4989814;28;20397;-76
2023/03/18 01:33:49;;;;;;;0.00;0.00;;;;;;;9.64;100.00;99110.81;4991747;28;20026;-77
2023/03/18 01:36:17;;;;;;;0.00;0.00;;;;;;;9.63;100.00;99101.03;4974155;28;20041;-78
2023/03/18 01:38:43;;;;;;;0.00;0.00;;;;;;;9.63;100.00;99109.22;4984207;28;20026;-77
2023/03/18 01:41:09;;;;;;;0.00;0.00;;;;;;;9.63;100.00;99106.50;5005014;28;20025;-77
2023/03/18 01:43:39;;;;;;;0.00;0.00;;;;;;;9.60;100.00;99096.97;5001586;28;20033;-76
2023/03/18 01:46:29;;;;;;;0.00;0.00;;;;;;;9.60;100.00;99111.41;5002750;28;20010;-78
2023/03/18 01:48:56;;;;;;;0.00;0.00;;;;;;;9.56;100.00;99102.22;5001916;28;20030;-77
2023/03/18 01:51:25;;;;;;;0.00;0.00;;;;;;;9.48;100.00;99078.28;5006876;28;20030;-79
2023/03/18 01:53:58;;;;;;;0.00;0.00;;;;;;;9.58;100.00;99089.06;5005679;28;20026;-80
2023/03/18 01:56:24;;;;;;;0.00;0.00;;;;;;;9.57;100.00;99087.44;4985748;28;20050;-77
2023/03/18 01:58:56;;;;;;;0.00;0.00;;;;;;;9.60;100.00;99086.03;4983962;28;20058;-77
2023/03/18 02:01:34;;;;;;;0.00;0.00;;;;;;;9.53;100.00;99070.00;5002545;28;20119;-77
2023/03/18 02:04:03;;;;;;;0.00;0.00;;;;;;;9.70;100.00;99091.38;4985710;28;20021;-77
2023/03/18 02:06:29;;;;;;;0.00;0.00;;;;;;;9.66;100.00;99084.88;4983618;28;20200;-76
2023/03/18 02:08:55;;;;;;;0.00;0.00;;;;;;;9.70;100.00;99090.56;4985674;28;20124;-77
2023/03/18 02:11:22;;;;;;;0.00;0.00;;;;;;;9.64;100.00;99081.63;5009090;28;20495;-78
2023/03/18 02:13:48;;;;;;;0.00;0.00;;;;;;;9.58;100.00;99085.53;5002265;28;20030;-77
2023/03/18 02:16:20;;;;;;;0.00;0.00;;;;;;;9.60;100.00;99088.78;4967411;28;20034;-77
2023/03/18 02:18:50;;;;;;;0.00;0.00;;;;;;;9.63;100.00;99090.91;5002297;28;20049;-77
2023/03/18 02:21:24;;;;;;;0.00;0.00;;;;;;;9.66;100.00;99089.53;4986336;28;20014;-77
2023/03/18 02:23:58;;;;;;;;;;;;;;;9.65;100.00;99087.91;5002792;28;20037;-77
2023/03/18 02:26:39;;;;;;;0.00;0.00;;;;;;;9.67;100.00;99080.25;4981446;28;19992;-78
2023/03/18 02:29:06;;;;;;;0.00;0.00;;;;;;;9.68;100.00;99081.84;4997844;28;20041;-78
2023/03/18 02:31:35;;;;;;;0.00;0.00;;;;;;;9.63;100.00;99073.75;5001393;28;20109;-78
2023/03/18 02:34:01;;;;;;;0.00;0.00;;;;;;;9.59;100.00;99060.69;4979421;28;20124;-78
2023/03/18 02:36:30;;;;;;;0.00;0.00;;;;;;;9.60;100.00;99070.47;4994875;28;20440;-78
2023/03/18 02:38:59;;;;;;;0.00;0.00;;;;;;;9.52;100.00;99068.41;4993246;28;20029;-78
2023/03/18 02:41:28;;;;;;;0.00;0.00;;;;;;;9.61;100.00;99074.84;4998947;28;20018;-77
2023/03/18 02:43:54;;;;;;;0.00;0.00;;;;;;;9.60;100.00;99086.03;5002596;28;20022;-79
2023/03/18 02:46:39;;;;;;;0.00;0.00;;;;;;;9.58;100.00;99091.81;4998338;28;20064;-78
2023/03/18 02:49:06;;;;;;;0.00;0.00;;;;;;;9.54;100.00;99077.09;4987280;28;20034;-79
2023/03/18 02:51:33;;;;;;;0.00;0.00;;;;;;;9.50;100.00;99081.53;4994251;28;20124;-79
2023/03/18 02:54:12;;;;;;;0.00;0.00;;;;;;;9.49;100.00;99084.53;4972304;28;20045;-78
2023/03/18 02:56:40;;;;;;;0.00;0.00;;;;;;;9.42;100.00;99069.34;4990206;28;20022;-79
2023/03/18 02:59:06;;;;;;;0.03;0.03;;;;;;;9.39;100.00;99071.84;4995331;28;20068;-78
2023/03/18 03:01:32;;;;;;;0.00;0.00;;;;;;;9.41;100.00;99088.72;5003936;28;20033;-79
2023/03/18 03:04:01;;;;;;;0.00;0.00;;;;;;;9.31;100.00;99076.00;4974518;28;20029;-78
2023/03/18 03:06:27;;;;;;;0.00;0.00;;;;;;;9.23;100.00;99060.31;4998253;28;20023;-78
2023/03/18 03:08:52;;;;;;;0.00;0.00;;;;;;;9.26;100.00;99059.72;5004091;28;20390;-78
2023/03/18 03:11:19;;;;;;;0.00;0.00;;;;;;;9.31;100.00;99073.28;4961573;28;21469;-77
2023/03/18 03:13:45;;;;;;;0.00;0.00;;;;;;;9.43;100.00;99091.97;4992559;28;20030;-78
2023/03/18 03:16:12;;;;;;;0.00;0.00;;;;;;;9.39;100.00;99086.28;4991963;28;20077;-79
2023/03/18 03:18:39;;;;;;;0.00;0.00;;;;;;;9.38;100.00;99092.03;4980294;28;20038;-78
2023/03/18 03:21:05;;;;;;;0.00;0.00;;;;;;;9.43;100.00;99092.81;4977679;28;20051;-78
2023/03/18 03:23:31;;;;;;;0.00;0.00;;;;;;;9.18;100.00;99068.53;4949314;28;20018;-78
2023/03/18 03:25:56;;;;;;;0.00;0.00;;;;;;;9.37;100.00;99098.59;4979872;28;20484;-78
2023/03/18 03:28:25;;;;;;;0.00;0.00;;;;;;;9.32;100.00;99090.47;4971106;28;20037;-79
2023/03/18 03:30:51;;;;;;;0.00;0.00;;;;;;;9.41;100.00;99105.09;4980013;28;20030;-78
2023/03/18 03:33:17;;;;;;;0.00;0.00;;;;;;;9.46;100.00;99118.66;4967644;28;20113;-78
2023/03/18 03:35:42;;;;;;;0.00;0.00;;;;;;;9.39;100.00;99110.06;4955416;28;20699;-77
2023/03/18 03:38:09;;;;;;;0.00;0.00;;;;;;;9.40;100.00;99108.94;4941313;28;20031;-78
2023/03/18 03:40:35;;;;;;;0.00;0.00;;;;;;;9.42;100.00;99112.19;4977481;28;20026;-77
2023/03/18 03:43:00;;;;;;;0.00;0.00;;;;;;;9.43;100.00;99122.81;4964461;28;20389;-76
2023/03/18 03:45:32;;;;;;;0.00;0.00;;;;;;;9.38;100.00;99122.06;4937249;28;20086;-77
2023/03/18 03:48:05;;;;;;;0.00;0.00;;;;;;;9.35;100.00;99115.25;4974926;28;20018;-77
2023/03/18 03:50:37;;;;;;;0.00;0.00;;;;;;;9.29;100.00;99101.94;4968923;28;20114;-78
2023/03/18 03:53:04;;;;;;;0.00;0.00;;;;;;;9.38;100.00;99128.31;4987616;28;20021;-76
2023/03/18 03:55:30;;;;;;;0.00;0.00;;;;;;;9.35;100.00;99119.91;4973605;28;20062;-76
2023/03/18 03:57:56;;;;;;;0.00;0.00;;;;;;;9.37;100.00;99125.88;4965193;28;20609;-77
2023/03/18 04:00:22;;;;;;;0.00;0.00;;;;;;;9.32;100.00;99118.56;4981196;28;20026;-78
2023/03/18 04:02:50;;;;;;;0.00;0.00;;;;;;;9.31;100.00;99102.50;4968810;28;20043;-79
2023/03/18 04:05:17;;;;;;;0.00;0.00;;;;;;;9.35;100.00;99117.19;4957828;28;20425;-75
2023/03/18 04:07:43;;;;;;;0.00;0.00;;;;;;;9.38;100.00;99122.06;4966161;28;20054;-78
2023/03/18 04:10:10;;;;;;;0.00;0.00;;;;;;;9.34;100.00;99121.00;4957181;28;20030;-78
2023/03/18 04:12:40;;;;;;;0.00;0.00;;;;;;;9.30;100.00;99112.59;4959063;28;20035;-78
2023/03/18 04:15:08;;;;;;;0.00;0.00;;;;;;;9.23;100.00;99098.50;4981936;28;20065;-78
2023/03/18 04:17:43;;;;;;;0.00;0.00;;;;;;;9.22;100.00;99099.59;4967922;28;20052;-78
2023/03/18 04:20:09;;;;;;;0.00;0.00;;;;;;;9.37;100.00;99126.69;5015023;28;20117;-77
2023/03/18 04:22:35;;;;;;;0.00;0.00;;;;;;;9.33;100.00;99119.38;4987374;28;20033;-76
2023/03/18 04:25:09;;;;;;;0.00;0.00;;;;;;;9.30;100.00;99109.03;4976035;28;20037;-76
2023/03/18 04:27:36;;;;;;;0.00;0.00;;;;;;;9.36;100.00;99118.78;4963125;28;20026;-77
2023/03/18 04:30:02;;;;;;;0.00;0.00;;;;;;;9.35;100.00;99118.00;4970783;28;20380;-77
2023/03/18 04:32:28;;;;;;;0.00;0.00;;;;;;;9.36;100.00;99119.63;4996277;28;20021;-78
2023/03/18 04:34:53;;;;;;;0.00;0.00;;;;;;;9.29;100.00;99110.13;5000570;28;20121;-77
2023/03/18 04:37:19;;;;;;;0.00;0.00;;;;;;;9.24;100.00;99117.28;5000982;28;20025;-78
2023/03/18 04:39:46;;;;;;;0.00;0.00;;;;;;;9.21;100.00;99117.88;4976858;28;20057;-77
2023/03/18 04:42:12;;;;;;;0.00;0.00;;;;;;;9.17;100.00;99105.91;5004737;28;20104;-77
2023/03/18 04:44:38;;;;;;;0.00;0.00;;;;;;;9.18;100.00;99112.16;4983521;28;20117;-76
2023/03/18 04:47:04;;;;;;;0.00;0.00;;;;;;;9.16;100.00;99117.13;4986429;28;20113;-77
2023/03/18 04:49:29;;;;;;;0.00;0.00;;;;;;;9.09;100.00;99114.72;4975017;28;20632;-77
2023/03/18 04:51:55;;;;;;;0.00;0.00;;;;;;;9.09;100.00;99125.63;4999203;28;20528;-76
2023/03/18 04:54:21;;;;;;;0.00;0.00;;;;;;;9.00;100.00;99105.53;4968782;28;20035;-77
2023/03/18 04:56:46;;;;;;;0.00;0.00;;;;;;;9.02;100.00;99117.78;4992142;28;20022;-76
2023/03/18 04:59:12;;;;;;;0.00;0.00;;;;;;;9.01;100.00;99118.06;4988259;28;20026;-77
2023/03/18 05:01:38;;;;;;;0.00;0.00;;;;;;;8.97;100.00;99117.84;4976155;28;20030;-77
2023/03/18 05:04:04;;;;;;;0.00;0.00;;;;;;;8.95;100.00;99122.78;4978894;28;20022;-77
2023/03/18 05:06:30;;;;;;;0.00;0.00;;;;;;;8.97;100.00;99130.66;4991647;28;20452;-77
2023/03/18 05:08:58;;;;;;;0.00;0.00;;;;;;;9.02;100.00;99136.06;4992631;28;20040;-77
2023/03/18 05:11:24;;;;;;;0.00;0.00;;;;;;;9.01;100.00;99124.34;5019774;28;20264;-79
2023/03/18 05:13:50;;;;;;;0.00;0.00;;;;;;;9.00;100.00;99116.44;4992370;28;20026;-78
2023/03/18 05:16:17;;;;;;;0.00;0.00;;;;;;;9.08;100.00;99124.00;4984746;28;20052;-78
2023/03/18 05:18:45;;;;;;;0.00;0.00;;;;;;;9.02;100.00;99116.97;4989972;28;20084;-78
2023/03/18 05:21:18;;;;;;;0.00;0.00;;;;;;;8.94;100.00;99112.97;4992561;28;20387;-78
2023/03/18 05:23:44;;;;;;;0.00;0.00;;;;;;;9.05;100.00;99124.56;5002656;28;20033;-78
2023/03/18 05:26:10;;;;;;;0.00;0.00;;;;;;;8.98;100.00;99107.72;4988391;28;20068;-78
2023/03/18 05:28:39;;;;;;;0.00;0.00;;;;;;;8.93;100.00;99099.63;5000486;28;20030;-79
2023/03/18 05:31:05;;;;;;;0.00;0.00;;;;;;;9.00;100.00;99094.63;5004488;28;20057;-78
2023/03/18 05:33:38;;;;;;;0.00;0.00;;;;;;;8.94;100.00;99090.34;4985633;28;20388;-78
2023/03/18 05:36:03;;;;;;;0.00;0.00;;;;;;;9.03;100.00;99110.41;4975180;28;20022;-79
2023/03/18 05:38:32;;;;;;;0.00;0.00;;;;;;;9.00;100.00;99106.34;4975490;28;20063;-78
2023/03/18 05:40:57;;;;;;;0.00;0.00;;;;;;;8.99;100.00;99099.25;4998297;28;20038;-78
2023/03/18 05:43:25;;;;;;;0.00;0.00;;;;;;;8.98;100.00;99107.72;4985330;28;20117;-78
2023/03/18 05:45:51;;;;;;;0.00;0.00;;;;;;;9.04;100.00;99120.22;4987156;28;20628;-78
2023/03/18 05:48:19;;;;;;;0.00;0.00;;;;;;;9.04;100.00;99117.50;4981667;28;20033;-78
2023/03/18 05:50:45;;;;;;;0.00;0.00;;;;;;;8.97;100.00;99115.09;4989022;28;20037;-78
2023/03/18 05:53:20;;;;;;;0.00;0.00;;;;;;;8.89;100.00;99104.81;4958389;28;20029;-78
2023/03/18 05:55:47;;;;;;;0.00;0.00;;;;;;;8.89;100.00;99108.38;4989109;28;20038;-79
2023/03/18 05:58:13;;;;;;;0.00;0.00;;;;;;;8.86;100.00;99098.03;4972588;28;20030;-78
2023/03/18 06:00:40;;;;;;;0.00;0.00;;;;;;;8.95;100.00;99116.47;5008246;28;20084;-79
2023/03/18 06:03:06;;;;;;;0.00;0.00;;;;;;;9.00;100.00;99124.63;4968721;28;20022;-77
2023/03/18 06:05:31;;;;;;;0.00;0.00;;;;;;;9.00;100.00;99135.53;4984462;28;20082;-78
2023/03/18 06:07:57;;;;;;;0.00;0.00;;;;;;;9.00;100.00;99138.25;5003896;28;20041;-78
2023/03/18 06:10:24;;;;;;;0.00;0.00;;;;;;;8.95;100.00;99130.13;4991166;28;20034;-78
2023/03/18 06:12:49;;;;;;;0.00;0.00;;;;;;;8.96;100.00;99126.31;4969279;28;20025;-78
2023/03/18 06:15:16;;;;;;;0.00;0.00;;;;;;;9.07;100.00;99141.47;4989760;28;20026;-78
2023/03/18 06:17:46;;;;;;;0.00;0.00;;;;;;;9.06;100.00;99131.66;4977365;28;20050;-78
2023/03/18 06:20:13;;;;;;;0.00;0.00;;;;;;;9.14;100.00;99139.22;4981545;28;20104;-78
2023/03/18 06:22:39;;;;;;;0.00;0.00;;;;;;;9.16;100.00;99131.56;4982709;28;20041;-78
2023/03/18 06:25:07;;;;;;;0.00;0.00;;;;;;;9.21;100.00;99142.44;4971834;28;20080;-78
2023/03/18 06:27:33;;;;;;;0.00;0.00;;;;;;;9.24;100.00;99132.81;4968889;28;20026;-77
2023/03/18 06:30:01;;;;;;;0.00;0.00;;;;;;;9.34;100.00;99153.75;4987058;28;20027;-77
2023/03/18 06:32:28;;;;;;;0.00;0.00;;;;;;;9.29;100.00;99140.97;4994666;28;20089;-77
2023/03/18 06:34:54;;;;;;;0.00;0.00;;;;;;;9.38;100.00;99149.34;4956082;28;20038;-77
2023/03/18 06:37:20;;;;;;;0.00;0.00;;;;;;;9.43;100.00;99155.56;4964710;28;20919;-77
2023/03/18 06:39:46;;;;;;;0.00;0.00;;;;;;;9.46;100.00;99156.06;4945570;28;20445;-76
2023/03/18 06:42:11;;;;;;;0.00;0.00;;;;;;;9.45;100.00;99155.28;4966515;28;20050;-76
2023/03/18 06:44:40;;;;;;;0.00;0.00;;;;;;;9.48;100.00;99154.69;4950771;28;20025;-77
2023/03/18 06:47:07;;;;;;;0.00;0.00;;;;;;;9.48;100.00;99149.22;4969505;28;20026;-77
2023/03/18 06:49:33;;;;;;;0.00;0.00;;;;;;;9.52;100.00;99161.19;4949207;28;20365;-77
2023/03/18 06:51:59;;;;;;;0.00;0.00;;;;;;;9.61;100.00;99159.44;4954441;28;20046;-77
2023/03/18 06:54:25;;;;;;;0.00;0.00;;;;;;;9.61;100.00;99154.00;4964517;28;20025;-78
2023/03/18 06:56:50;;;;;;;0.00;0.00;;;;;;;9.73;100.00;99158.22;4940031;28;20027;-77
2023/03/18 06:59:16;;;;;;;0.00;0.00;;;;;;;9.76;100.00;99153.00;4953488;28;20034;-76
2023/03/18 07:01:42;;;;;;;0.00;0.00;;;;;;;9.80;100.00;99150.50;4970318;28;20032;-77
2023/03/18 07:04:07;;;;;;;0.00;0.00;;;;;;;9.85;100.00;99150.41;4955754;28;20672;-76
2023/03/18 07:06:33;;;;;;;0.00;0.00;;;;;;;9.90;100.00;99163.19;4936576;28;20089;-75
2023/03/18 07:09:00;;;;;;;0.00;0.00;;;;;;;9.93;100.00;99170.81;4949220;28;20075;-76
2023/03/18 07:11:26;;;;;;;0.00;0.00;;;;;;;9.90;100.00;99161.28;4947300;28;20026;-76
2023/03/18 07:13:52;;;;;;;0.00;0.00;;;;;;;9.90;100.00;99155.00;4954702;28;20477;-76
2023/03/18 07:16:18;;;;;;;0.00;0.00;;;;;;;9.99;100.00;99174.28;4964372;28;20050;-76
2023/03/18 07:18:44;;;;;;;0.00;0.00;;;;;;;9.87;100.00;99150.13;4990027;28;20635;-78
2023/03/18 07:21:10;;;;;;;0.00;0.00;;;;;;;9.87;100.00;99159.16;4989661;28;20200;-77
2023/03/18 07:23:40;;;;;;;0.00;0.00;;;;;;;9.91;100.00;99175.75;4984730;28;20025;-78
2023/03/18 07:26:06;;;;;;;0.00;0.00;;;;;;;10.00;100.00;99181.38;4976029;28;20465;-79
2023/03/18 07:28:31;;;;;;;0.00;0.00;;;;;;;10.05;100.00;99178.59;5005277;28;20030;-77
2023/03/18 07:30:57;;;;;;;0.00;0.00;;;;;;;10.09;100.00;99179.59;4971480;28;20037;-78
2023/03/18 07:33:23;;;;;;;0.00;0.00;;;;;;;10.19;100.00;99190.44;4986922;28;20034;-76
2023/03/18 07:35:48;;;;;;;0.00;0.00;;;;;;;10.22;100.00;99187.09;4966887;28;20457;-78
2023/03/18 07:38:14;;;;;;;0.00;0.00;;;;;;;10.25;100.00;99185.69;5004602;28;20112;-76
2023/03/18 07:40:40;;;;;;;0.00;0.00;;;;;;;10.34;100.00;99183.97;4975038;28;20472;-77
2023/03/18 07:43:05;;;;;;;0.00;0.00;;;;;;;10.38;100.00;99176.81;4982998;28;21314;-76
2023/03/18 07:45:32;;;;;;;0.00;0.00;;;;;;;10.42;100.00;99177.03;5002369;28;20389;-77
2023/03/18 07:47:57;;;;;;;0.00;0.00;;;;;;;10.56;100.00;99186.09;4983555;28;20064;-76
2023/03/18 07:50:23;;;;;;;0.00;0.00;;;;;;;10.57;100.00;99179.53;4981963;28;20034;-77
2023/03/18 07:52:48;;;;;;;0.00;0.00;;;;;;;10.72;100.00;99194.06;4983842;28;20121;-75
2023/03/18 07:55:14;;;;;;;0.00;0.00;;;;;;;10.74;100.00;99183.66;4982603;28;20026;-76
2023/03/18 07:57:40;;;;;;;0.00;0.00;;;;;;;10.82;100.00;99197.47;4964236;28;20033;-75
2023/03/18 08:00:09;;;;;;;0.00;0.00;;;;;;;10.87;100.00;99203.97;4991362;28;20034;-77
2023/03/18 08:02:35;;;;;;;0.00;0.00;;;;;;;10.85;100.00;99181.56;4984504;28;20029;-76
2023/03/18 08:05:02;;;;;;;0.00;0.00;;;;;;;11.10;100.00;99191.28;4985843;28;20030;-77
2023/03/18 08:07:28;;;;;;;0.00;0.00;;;;;;;11.29;100.00;99192.03;4985728;28;20046;-76
2023/03/18 08:09:54;;;;;;;0.00;0.00;;;;;;;11.45;100.00;99205.47;4977140;28;20053;-77
2023/03/18 08:12:20;;;;;;;0.00;0.00;;;;;;;11.50;99.79;99210.81;4980895;28;20018;-77
2023/03/18 08:14:47;;;;;;;0.00;0.00;;;;;;;11.50;99.55;99202.63;4991078;28;20376;-77
2023/03/18 08:17:13;;;;;;;0.00;0.00;;;;;;;11.51;99.22;99201.50;4945455;28;20053;-77
2023/03/18 08:19:47;;;;;;;0.00;0.00;;;;;;;11.48;99.07;99197.44;4971988;28;20022;-79
2023/03/18 08:22:17;;;;;;;0.00;0.00;;;;;;;11.52;98.54;99192.16;4950387;28;20027;-79
2023/03/18 08:24:46;;;;;;;0.00;0.00;;;;;;;11.66;98.54;99208.63;4967200;28;20473;-85
2023/03/18 08:27:11;;;;;;;0.03;0.03;;;;;;;11.63;97.85;99199.06;4982588;28;20034;-80
2023/03/18 08:29:37;;;;;;;0.00;0.00;;;;;;;11.73;97.41;99208.22;4986786;28;20030;-80
2023/03/18 08:32:02;;;;;;;0.00;0.00;;;;;;;11.79;97.33;99223.44;4972758;28;20642;-78
2023/03/18 08:34:37;;;;;;;0.00;0.00;;;;;;;11.72;97.02;99218.34;4962778;28;20033;-79
2023/03/18 08:37:03;;;;;;;0.00;0.00;;;;;;;11.75;96.73;99216.94;4983535;28;20026;-79
2023/03/18 08:39:29;;;;;;;0.00;0.00;;;;;;;11.73;95.85;99214.50;4994542;28;20160;-76
2023/03/18 08:41:57;;;;;;;0.00;0.00;;;;;;;11.67;95.01;99216.53;4951408;28;20031;-78
2023/03/18 08:44:23;;;;;;;0.00;0.00;;;;;;;11.62;93.90;99211.16;4986939;28;20025;-77
2023/03/18 08:46:48;;;;;;;0.00;0.00;;;;;;;11.62;93.68;99215.81;4981577;28;20172;-79
2023/03/18 08:49:17;;;;;;;0.00;0.00;;;;;;;11.86;94.29;99234.81;4981569;28;21504;-78
2023/03/18 08:51:43;;;;;;;0.00;0.00;;;;;;;12.02;93.61;99227.94;4981382;28;20149;-78
2023/03/18 08:54:09;;;;;;;0.00;0.00;;;;;;;12.36;93.21;99229.41;4984109;28;20033;-78
2023/03/18 08:56:34;;;;;;;0.00;0.00;;;;;;;12.58;91.28;99230.59;4999278;28;20023;-77
2023/03/18 08:59:02;;;;;;;0.00;0.00;;;;;;;12.80;91.53;99240.00;4994711;28;20079;-79
2023/03/18 09:01:29;;;;;;;0.00;0.00;;;;;;;13.09;90.35;99237.63;4969831;28;20041;-78
2023/03/18 09:03:56;;;;;;;0.00;0.00;;;;;;;13.65;88.62;99242.06;4975714;28;20141;-77
2023/03/18 09:06:22;;;;;;;0.00;0.00;;;;;;;13.64;86.56;99235.75;4970409;28;20018;-78
2023/03/18 09:08:47;;;;;;;0.00;0.00;;;;;;;13.74;87.00;99232.72;4969958;28;20034;-78
2023/03/18 09:11:13;;;;;;;0.00;0.00;;;;;;;13.87;86.28;99249.41;4983265;28;20104;-77
2023/03/18 09:13:38;;;;;;;0.00;0.00;;;;;;;13.70;86.25;99237.22;4966593;28;20046;-76
2023/03/18 09:16:07;;;;;;;0.00;0.00;;;;;;;13.50;85.40;99246.00;4967293;28;20065;-76
2023/03/18 09:18:34;;;;;;;0.00;0.00;;;;;;;13.40;85.03;99253.41;4989851;28;20053;-78
2023/03/18 09:21:00;;;;;;;0.00;0.00;;;;;;;13.20;85.35;99253.84;5009816;28;20028;-76
2023/03/18 09:23:26;;;;;;;0.00;0.00;;;;;;;13.19;86.35;99252.25;4990810;28;20376;-79
2023/03/18 09:25:53;;;;;;;0.00;0.00;;;;;;;13.31;86.55;99254.44;5008560;28;20037;-78
2023/03/18 09:28:22;;;;;;;0.00;0.00;;;;;;;13.66;85.42;99265.66;4994121;28;20032;-78
2023/03/18 09:30:49;;;;;;;0.00;0.00;;;;;;;13.82;84.36;99249.56;4986980;28;20459;-80
2023/03/18 09:33:15;;;;;;;0.00;0.00;;;;;;;14.65;84.09;99263.44;4994149;28;20388;-78
2023/03/18 09:35:41;;;;;;;0.00;0.00;;;;;;;18.12;80.92;99266.94;4970879;28;20034;-77
2023/03/18 09:38:07;;;;;;;0.00;0.00;;;;;;;22.97;61.29;99292.53;4976158;28;20037;-78
2023/03/18 09:40:41;;;;;;;0.00;0.00;;;;;;;24.01;55.31;99281.81;4987709;28;20076;-79
2023/03/18 09:43:43;;;;;;;0.00;0.00;;;;;;;22.60;56.14;99293.19;4985057;28;20036;-78
2023/03/18 09:46:36;;;;;;;0.00;0.00;;;;;;;20.39;59.95;99279.72;4986722;28;20029;-77
2023/03/18 09:49:34;;;;;;;0.00;0.00;;;;;;;19.83;61.39;99300.13;4982388;28;20114;-77
2023/03/18 09:52:35;;;;;;;0.00;0.00;;;;;;;20.35;58.19;99278.81;5009743;28;20025;-79
2023/03/18 09:55:09;;;;;;;0.00;0.00;;;;;;;21.13;54.81;99282.97;4939465;28;20037;-78
2023/03/18 09:57:41;;;;;;;0.00;0.00;;;;;;;21.35;51.79;99279.47;4974052;28;20072;-78
2023/03/18 10:00:31;;;;;;;0.00;0.00;;;;;;;21.08;50.57;99293.22;5003968;28;20121;-77
2023/03/18 10:03:02;;;;;;;0.00;0.00;;;;;;;21.77;50.54;99306.53;4974200;28;20045;-77
2023/03/18 10:06:19;;;;;;;0.00;0.00;;;;;;;21.42;48.14;99307.41;5003476;28;20041;-77
2023/03/18 10:09:05;;;;;;;0.00;0.00;;;;;;;21.02;49.78;99299.41;5000597;28;20068;-77
2023/03/18 10:11:38;;;;;;;0.00;0.00;;;;;;;21.32;49.26;99302.44;4991248;28;20025;-76
2023/03/18 10:14:25;;;;;;;0.00;0.00;;;;;;;22.56;48.24;99309.06;4988265;28;20026;-77
2023/03/18 10:17:05;;;;;;;0.00;0.00;;;;;;;25.79;41.22;99302.03;5003358;28;20129;-78
2023/03/18 10:19:34;;;;;;;0.00;0.00;;;;;;;27.64;36.62;99320.22;5006762;28;20041;-79
2023/03/18 10:22:28;;;;;;;0.00;0.00;;;;;;;30.41;32.49;99322.97;5004344;28;20034;-77
2023/03/18 10:25:19;;;;;;;0.00;0.00;;;;;;;28.64;32.83;99318.75;4986760;28;20030;-77
2023/03/18 10:27:59;;;;;;;0.00;0.00;;;;;;;26.75;34.93;99316.50;4996068;28;20024;-78
2023/03/18 10:31:00;;;;;;;0.00;0.00;;;;;;;26.21;36.71;99300.50;4984778;28;20060;-76
2023/03/18 10:33:55;;;;;;;0.00;0.00;;;;;;;28.51;33.76;99304.38;5001437;28;20037;-77
2023/03/18 10:36:52;;;;;;;0.00;0.00;;;;;;;32.70;29.33;99306.44;4896190;29;20044;-78
2023/03/18 10:39:21;;;;;;;0.00;0.00;;;;;;;36.54;22.66;99305.13;4983556;28;20438;-76
2023/03/18 10:41:50;;;;;;;0.00;0.00;;;;;;;39.83;22.05;99306.97;4999015;28;20030;-79
2023/03/18 10:44:31;;;;;;;0.00;0.00;;;;;;;43.34;18.14;99310.06;4986423;28;20018;-79
2023/03/18 10:47:14;;;;;;;0.00;0.00;;;;;;;43.78;16.58;99302.75;5008333;28;20053;-77
2023/03/18 10:49:49;;;;;;;0.00;0.00;;;;;;;41.58;18.82;99311.25;5004507;28;20026;-78
2023/03/18 10:52:36;;;;;;;0.00;0.00;;;;;;;40.16;17.37;99301.00;4978999;28;20064;-78
2023/03/18 10:55:15;;;;;;;0.00;0.00;;;;;;;37.53;20.00;99283.25;4979666;28;20105;-79
2023/03/18 10:57:41;;;;;;;0.00;0.00;;;;;;;39.53;18.94;99287.75;5003142;28;20021;-77
2023/03/18 11:00:35;;;;;;;0.00;0.00;;;;;;;40.56;18.34;99301.53;4976715;28;20041;-77
2023/03/18 11:03:03;;;;;;;0.00;0.00;;;;;;;42.95;16.63;99302.13;5006213;28;20149;-78
2023/03/18 11:05:36;;;;;;;0.00;0.00;;;;;;;42.00;16.12;99306.91;4998175;28;20432;-79
2023/03/18 11:08:13;;;;;;;0.00;0.00;;;;;;;38.57;18.11;99297.34;5000217;28;20658;-78
2023/03/18 11:10:45;;;;;;;0.00;0.00;;;;;;;36.91;18.76;99310.09;4990567;28;20033;-77
2023/03/18 11:13:19;;;;;;;0.00;0.00;;;;;;;32.95;22.38;99296.47;4971641;28;20142;-78
2023/03/18 11:15:55;;;;;;;0.00;0.00;;;;;;;29.80;25.25;99283.63;4983562;28;20025;-76
2023/03/18 11:18:24;;;;;;;0.00;0.00;;;;;;;28.03;28.72;99277.09;4986463;28;20091;-80
2023/03/18 11:21:01;;;;;;;0.00;0.00;;;;;;;26.52;30.47;99277.66;5007264;28;20018;-75
2023/03/18 11:24:06;;;;;;;0.00;0.00;;;;;;;24.98;32.71;99276.13;4990518;28;20164;-81
2023/03/18 11:26:45;;;;;;;0.00;0.00;;;;;;;23.40;35.60;99281.16;4986760;28;20033;-77
2023/03/18 11:29:34;;;;;;;0.00;0.00;;;;;;;24.57;35.93;99263.91;5001671;28;20062;-79
2023/03/18 11:32:04;;;;;;;0.00;0.00;;;;;;;28.64;30.57;99293.44;4983212;28;20026;-79
2023/03/18 11:34:32;;;;;;;0.00;0.00;;;;;;;33.78;24.39;99288.44;4996529;28;20109;-77
2023/03/18 11:36:59;;;;;;;0.00;0.00;;;;;;;37.90;20.15;99308.78;4988238;28;20112;-79
2023/03/18 11:39:35;;;;;;;0.00;0.00;;;;;;;41.32;18.88;99312.03;4981874;28;20122;-83
2023/03/18 11:42:21;;;;;;;0.00;0.00;;;;;;;43.91;14.03;99317.44;4987847;28;20027;-78
2023/03/18 11:44:48;;;;;;;0.00;0.00;;;;;;;43.27;15.13;99319.19;4998049;28;20030;-79